Time;durP1;ratioP1;P1;durP2;ratioP2;P2;SDS_P1;SDS_P2;PMS_P1;PMS_P2;Temp;Humidity;BMP_temperature;BMP_pressure;BME280_temperature;BME280_humidity;BME280_pressure;Samples;Min_cycle;Max_cycle;Signal;HPM_P1;HPM_P2
2022/06/13 00:00:01;;;;;;;;;;;23.80;55.80;;;;;;4984257;28;20277;-69
2022/06/13 00:02:26;;;;;;;;;;;23.80;55.70;;;;;;4983116;28;19914;-69
2022/06/13 00:04:51;;;;;;;;;;;23.80;55.70;;;;;;4984794;28;19914;-68
2022/06/13 00:07:17;;;;;;;;;;;23.80;55.70;;;;;;4985069;28;19921;-69
2022/06/13 00:09:42;;;;;;;;;;;23.80;55.80;;;;;;4984555;28;19914;-69
2022/06/13 00:12:08;;;;;;;;;;;23.80;55.70;;;;;;4984623;28;19961;-70
2022/06/13 00:14:33;;;;;;;;;;;23.80;55.70;;;;;;4984415;28;19925;-70
2022/06/13 00:17:00;;;;;;;;;;;23.80;55.70;;;;;;4984775;28;19917;-67
2022/06/13 00:19:26;;;;;;;;;;;23.80;55.70;;;;;;4984337;28;19925;-71
2022/06/13 00:21:51;;;;;;;;;;;23.80;55.70;;;;;;4983978;28;19914;-69
2022/06/13 00:24:17;;;;;;;;;;;23.80;55.60;;;;;;4984900;28;19935;-69
2022/06/13 00:26:42;;;;;;;;;;;23.80;55.70;;;;;;4984328;28;20404;-70
2022/06/13 00:29:08;;;;;;;;;;;23.80;55.70;;;;;;4984420;28;19922;-69
2022/06/13 00:31:33;;;;;;;;;;;23.80;55.70;;;;;;4984113;28;19925;-70
2022/06/13 00:33:58;;;;;;;;;;;23.80;55.60;;;;;;4984398;28;19914;-68
2022/06/13 00:36:24;;;;;;;;;;;23.80;55.60;;;;;;4983823;28;19922;-70
2022/06/13 00:38:50;;;;;;;;;;;23.80;55.60;;;;;;4984279;28;19924;-69
2022/06/13 00:41:16;;;;;;;;;;;23.70;55.50;;;;;;4984318;28;19914;-68
2022/06/13 00:43:42;;;;;;;;;;;23.80;55.50;;;;;;4984069;28;19921;-68
2022/06/13 00:46:17;;;;;;;;;;;23.80;55.50;;;;;;4984651;28;20672;-70
2022/06/13 00:48:42;;;;;;;;;;;23.70;55.50;;;;;;4984109;28;19975;-69
2022/06/13 00:51:08;;;;;;;;;;;23.80;55.50;;;;;;4983520;28;19929;-69
2022/06/13 00:53:34;;;;;;;;;;;23.70;55.50;;;;;;4984296;28;19949;-70
2022/06/13 00:56:07;;;;;;;;;;;23.80;55.50;;;;;;4966293;28;19924;-70
2022/06/13 00:58:36;;;;;;;;;;;23.70;55.50;;;;;;4984064;28;19918;-68
2022/06/13 01:01:03;;;;;;;;;;;23.80;55.50;;;;;;4982738;28;19914;-68
2022/06/13 01:03:28;;;;;;;;;;;23.70;55.40;;;;;;4984524;28;19918;-70
2022/06/13 01:05:54;;;;;;;;;;;23.70;55.40;;;;;;4984187;28;19917;-70
2022/06/13 01:08:20;;;;;;;;;;;23.80;55.50;;;;;;4979448;28;20022;-70
2022/06/13 01:13:38;;;;;;;;;;;23.70;55.30;;;;;;4983978;28;19948;-70
2022/06/13 01:16:09;;;;;;;;;;;23.70;55.40;;;;;;4966743;28;19922;-69
2022/06/13 01:18:43;;;;;;;;;;;23.70;55.30;;;;;;4962156;28;21569;-70
2022/06/13 01:21:14;;;;;;;;;;;23.70;55.30;;;;;;4964836;28;20056;-71
2022/06/13 01:23:39;;;;;;;;;;;23.70;55.30;;;;;;4947446;28;20235;-70
2022/06/13 01:26:28;;;;;;;;;;;23.70;55.30;;;;;;4965329;28;20458;-69
2022/06/13 01:29:08;;;;;;;;;;;23.70;55.30;;;;;;4963112;28;19918;-70
2022/06/13 01:31:39;;;;;;;;;;;23.70;55.30;;;;;;4965406;28;19993;-70
2022/06/13 01:34:15;;;;;;;;;;;23.70;55.30;;;;;;4986073;28;19914;-69
2022/06/13 01:36:43;;;;;;;;;;;23.70;55.30;;;;;;4987579;28;19928;-70
2022/06/13 01:39:13;;;;;;;;;;;23.70;55.30;;;;;;4982321;28;19917;-69
2022/06/13 01:41:48;;;;;;;;;;;23.70;55.30;;;;;;4985508;28;20525;-70
2022/06/13 01:44:15;;;;;;;;;;;23.70;55.20;;;;;;4985652;28;19914;-70
2022/06/13 01:46:53;;;;;;;;;;;23.70;55.20;;;;;;4985978;28;19917;-69
2022/06/13 01:49:30;;;;;;;;;;;23.70;55.30;;;;;;4975655;28;20805;-70
2022/06/13 01:52:03;;;;;;;;;;;23.70;55.30;;;;;;4986949;28;19913;-70
2022/06/13 01:54:47;;;;;;;;;;;23.70;55.20;;;;;;4985821;28;19918;-70
2022/06/13 01:57:15;;;;;;;;;;;23.70;55.30;;;;;;4987354;28;20308;-70
2022/06/13 01:59:43;;;;;;;;;;;23.70;55.20;;;;;;4985758;28;20573;-70
2022/06/13 02:02:10;;;;;;;;;;;23.70;55.20;;;;;;4986569;28;19982;-70
2022/06/13 02:04:37;;;;;;;;;;;23.70;55.20;;;;;;4985306;28;19942;-69
2022/06/13 02:07:13;;;;;;;;;;;23.70;55.20;;;;;;4985526;28;20391;-69
2022/06/13 02:09:40;;;;;;;;;;;23.60;55.20;;;;;;4985642;28;19950;-70
2022/06/13 02:12:05;;;;;;;;;;;23.70;55.20;;;;;;4985421;28;19918;-70
2022/06/13 02:14:50;;;;;;;;;;;23.70;55.30;;;;;;4986442;28;20446;-70
2022/06/13 02:17:16;;;;;;;;;;;23.70;55.30;;;;;;4985410;28;21000;-70
2022/06/13 02:20:00;;;;;;;;;;;23.70;55.20;;;;;;4987040;28;20000;-69
2022/06/13 02:22:36;;;;;;;;;;;23.70;55.30;;;;;;4985619;28;19918;-68
2022/06/13 02:25:09;;;;;;;;;;;23.70;55.30;;;;;;4984875;28;19921;-69
2022/06/13 02:27:36;;;;;;;;;;;23.60;55.20;;;;;;4968140;28;20341;-70
2022/06/13 02:30:05;;;;;;;;;;;23.70;55.20;;;;;;4982543;28;19963;-70
2022/06/13 02:32:51;;;;;;;;;;;23.70;55.20;;;;;;4968795;28;20443;-70
2022/06/13 02:35:27;;;;;;;;;;;23.60;55.20;;;;;;4976432;28;19956;-70
2022/06/13 02:38:03;;;;;;;;;;;23.60;55.20;;;;;;4977455;28;21510;-69
2022/06/13 02:40:35;;;;;;;;;;;23.60;55.20;;;;;;4978777;28;19924;-69
2022/06/13 02:43:00;;;;;;;;;;;23.60;55.10;;;;;;4991386;28;19914;-69
2022/06/13 02:45:27;;;;;;;;;;;23.60;55.00;;;;;;4986956;28;19950;-69
2022/06/13 02:47:55;;;;;;;;;;;23.60;55.20;;;;;;4985738;28;20017;-67
2022/06/13 02:50:25;;;;;;;;;;;23.60;55.20;;;;;;4985942;28;19922;-69
2022/06/13 02:52:53;;;;;;;;;;;23.60;55.10;;;;;;4987019;28;19921;-70
2022/06/13 02:55:18;;;;;;;;;;;23.60;55.10;;;;;;4989175;28;20726;-70
2022/06/13 02:57:50;;;;;;;;;;;23.60;55.20;;;;;;4987498;28;19914;-69
2022/06/13 03:00:23;;;;;;;;;;;23.60;55.20;;;;;;4970761;28;19915;-70
2022/06/13 03:03:01;;;;;;;;;;;23.60;55.20;;;;;;4968987;28;19915;-70
2022/06/13 03:05:37;;;;;;;;;;;23.60;55.10;;;;;;4965923;28;19914;-69
2022/06/13 03:08:18;;;;;;;;;;;23.60;55.10;;;;;;4966605;28;20306;-66
2022/06/13 03:11:02;;;;;;;;;;;23.60;55.10;;;;;;4986003;28;19972;-68
2022/06/13 03:13:39;;;;;;;;;;;23.60;55.20;;;;;;4985694;28;19914;-69
2022/06/13 03:16:19;;;;;;;;;;;23.60;55.10;;;;;;4986237;28;20708;-69
2022/06/13 03:18:45;;;;;;;;;;;23.60;55.10;;;;;;4985207;28;19913;-70
2022/06/13 03:21:14;;;;;;;;;;;23.60;55.10;;;;;;4984107;28;19921;-68
2022/06/13 03:23:40;;;;;;;;;;;23.60;55.10;;;;;;4987338;28;20019;-67
2022/06/13 03:26:07;;;;;;;;;;;23.60;55.10;;;;;;4985759;28;19920;-69
2022/06/13 03:28:51;;;;;;;;;;;23.60;55.00;;;;;;4984369;28;19914;-70
2022/06/13 03:31:28;;;;;;;;;;;23.60;55.00;;;;;;4983040;28;19925;-71
2022/06/13 03:33:55;;;;;;;;;;;23.60;55.10;;;;;;4994570;28;20660;-71
2022/06/13 03:36:22;;;;;;;;;;;23.60;55.00;;;;;;5003103;28;19917;-70
2022/06/13 03:38:49;;;;;;;;;;;23.60;55.10;;;;;;5000999;28;19917;-70
2022/06/13 03:41:15;;;;;;;;;;;23.50;55.00;;;;;;4983945;28;20654;-70
2022/06/13 03:43:44;;;;;;;;;;;23.50;55.00;;;;;;4984553;28;20008;-71
2022/06/13 03:46:11;;;;;;;;;;;23.50;55.00;;;;;;4983584;28;20305;-71
2022/06/13 03:48:44;;;;;;;;;;;23.50;55.00;;;;;;4983426;28;20477;-71
2022/06/13 03:51:12;;;;;;;;;;;23.50;55.00;;;;;;4983562;28;20000;-71
2022/06/13 03:53:42;;;;;;;;;;;23.50;54.70;;;;;;4982858;28;19944;-70
2022/06/13 03:56:09;;;;;;;;;;;23.50;54.70;;;;;;4980233;28;20135;-70
2022/06/13 03:58:36;;;;;;;;;;;23.50;55.00;;;;;;4963876;28;20001;-71
2022/06/13 04:01:15;;;;;;;;;;;23.50;55.00;;;;;;4978611;28;20072;-70
2022/06/13 04:03:41;;;;;;;;;;;23.50;54.80;;;;;;4980608;28;20034;-71
2022/06/13 04:06:26;;;;;;;;;;;23.50;54.90;;;;;;4984172;28;19926;-71
2022/06/13 04:08:52;;;;;;;;;;;23.50;54.90;;;;;;4982417;28;20316;-70
2022/06/13 04:11:36;;;;;;;;;;;23.50;54.90;;;;;;4998673;28;19913;-70
2022/06/13 04:14:10;;;;;;;;;;;23.50;54.70;;;;;;5003013;28;20136;-69
2022/06/13 04:16:42;;;;;;;;;;;23.50;54.90;;;;;;4965699;28;20467;-70
2022/06/13 04:19:08;;;;;;;;;;;23.50;54.90;;;;;;4963842;28;20408;-70
2022/06/13 04:21:47;;;;;;;;;;;23.50;54.80;;;;;;4973860;28;19952;-71
2022/06/13 04:24:23;;;;;;;;;;;23.50;54.80;;;;;;4983036;28;19913;-70
2022/06/13 04:26:59;;;;;;;;;;;23.50;54.90;;;;;;4983443;28;19920;-68
2022/06/13 04:29:27;;;;;;;;;;;23.50;54.80;;;;;;4982288;28;20597;-70
2022/06/13 04:31:54;;;;;;;;;;;23.50;55.60;;;;;;4983660;28;20359;-70
2022/06/13 04:34:20;;;;;;;;;;;23.50;54.90;;;;;;4983048;28;19914;-68
2022/06/13 04:36:46;;;;;;;;;;;23.50;54.90;;;;;;4982284;28;22113;-69
2022/06/13 04:39:13;;;;;;;;;;;23.50;54.80;;;;;;4983319;28;19957;-70
2022/06/13 04:41:39;;;;;;;;;;;23.50;54.80;;;;;;4982436;28;19921;-70
2022/06/13 04:44:05;;;;;;;;;;;23.50;54.90;;;;;;4983901;28;19926;-69
2022/06/13 04:46:31;;;;;;;;;;;23.50;54.80;;;;;;4982482;28;19989;-69
2022/06/13 04:48:57;;;;;;;;;;;23.50;55.00;;;;;;4982660;28;20002;-70
2022/06/13 04:51:27;;;;;;;;;;;23.50;54.80;;;;;;4983903;28;19958;-69
2022/06/13 04:53:57;;;;;;;;;;;23.50;55.00;;;;;;4982524;28;19956;-69
2022/06/13 04:56:23;;;;;;;;;;;23.50;55.60;;;;;;4982556;28;19957;-70
2022/06/13 04:58:48;;;;;;;;;;;23.50;54.90;;;;;;4982799;28;20450;-69
2022/06/13 05:01:21;;;;;;;;;;;23.50;54.70;;;;;;4982539;28;19914;-71
2022/06/13 05:03:48;;;;;;;;;;;23.40;55.90;;;;;;4982412;28;19922;-69
2022/06/13 05:06:19;;;;;;;;;;;23.40;55.40;;;;;;4984156;28;20004;-70
2022/06/13 05:08:46;;;;;;;;;;;23.50;54.90;;;;;;4988194;28;19938;-70
2022/06/13 05:11:16;;;;;;;;;;;23.30;54.50;;;;;;4987759;28;19924;-69
2022/06/13 05:13:42;;;;;;;;;;;23.40;54.60;;;;;;4988098;28;19968;-69
2022/06/13 05:16:14;;;;;;;;;;;23.40;53.50;;;;;;4986799;28;19918;-70
2022/06/13 05:19:01;;;;;;;;;;;23.40;53.40;;;;;;4986616;28;19914;-70
2022/06/13 05:21:39;;;;;;;;;;;23.30;52.40;;;;;;4986204;28;20405;-70
2022/06/13 05:24:17;;;;;;;;;;;23.30;52.20;;;;;;4987623;28;20563;-71
2022/06/13 05:26:43;;;;;;;;;;;23.30;52.60;;;;;;4988212;28;19924;-68
2022/06/13 05:29:08;;;;;;;;;;;23.30;52.80;;;;;;4990496;28;19918;-70
2022/06/13 05:31:34;;;;;;;;;;;23.10;51.40;;;;;;4989064;28;19961;-70
2022/06/13 05:33:59;;;;;;;;;;;23.10;52.30;;;;;;4987552;28;19914;-68
2022/06/13 05:36:25;;;;;;;;;;;23.00;52.40;;;;;;4987529;28;20020;-70
2022/06/13 05:38:58;;;;;;;;;;;23.00;51.90;;;;;;4987704;28;19921;-68
2022/06/13 05:41:23;;;;;;;;;;;22.90;52.80;;;;;;4987127;28;20372;-69
2022/06/13 05:43:49;;;;;;;;;;;23.10;52.70;;;;;;4987985;28;19921;-71
2022/06/13 05:46:16;;;;;;;;;;;23.10;52.20;;;;;;4987592;28;19996;-71
2022/06/13 05:48:41;;;;;;;;;;;23.20;52.30;;;;;;4985861;28;19917;-69
2022/06/13 05:51:07;;;;;;;;;;;23.20;51.80;;;;;;4986759;28;19937;-70
2022/06/13 05:53:32;;;;;;;;;;;23.00;52.70;;;;;;4987081;28;19989;-70
2022/06/13 05:55:58;;;;;;;;;;;23.10;52.80;;;;;;4987121;28;19961;-71
2022/06/13 05:58:23;;;;;;;;;;;23.20;53.00;;;;;;4986009;28;20550;-69
2022/06/13 06:00:50;;;;;;;;;;;23.20;52.80;;;;;;4987984;28;19914;-68
2022/06/13 06:03:16;;;;;;;;;;;23.20;52.70;;;;;;4987735;28;19918;-69
2022/06/13 06:05:42;;;;;;;;;;;23.20;52.70;;;;;;4987460;28;19914;-71
2022/06/13 06:08:16;;;;;;;;;;;23.30;52.80;;;;;;4987458;28;19914;-71
2022/06/13 06:10:41;;;;;;;;;;;23.20;51.70;;;;;;4987246;28;19922;-71
2022/06/13 06:13:07;;;;;;;;;;;23.20;53.10;;;;;;4985338;28;20328;-70
2022/06/13 06:15:33;;;;;;;;;;;23.10;53.00;;;;;;4985056;28;19925;-70
2022/06/13 06:17:58;;;;;;;;;;;23.20;52.50;;;;;;4985422;28;19924;-70
2022/06/13 06:20:24;;;;;;;;;;;23.00;53.10;;;;;;4986877;28;20029;-71
2022/06/13 06:22:49;;;;;;;;;;;23.00;53.30;;;;;;4986945;28;19921;-70
2022/06/13 06:25:14;;;;;;;;;;;23.00;53.40;;;;;;4987003;28;19914;-71
2022/06/13 06:27:40;;;;;;;;;;;23.20;53.10;;;;;;4986938;28;19993;-67
2022/06/13 06:30:06;;;;;;;;;;;22.80;53.90;;;;;;4987191;28;19913;-70
2022/06/13 06:32:31;;;;;;;;;;;22.70;54.50;;;;;;4985267;28;20620;-69
2022/06/13 06:34:57;;;;;;;;;;;22.60;53.30;;;;;;4985693;28;20376;-71
2022/06/13 06:37:22;;;;;;;;;;;22.60;54.20;;;;;;4986586;28;19976;-70
2022/06/13 06:39:48;;;;;;;;;;;22.70;54.50;;;;;;4987339;28;19920;-69
2022/06/13 06:42:13;;;;;;;;;;;22.80;54.00;;;;;;4983519;28;19941;-69
2022/06/13 06:44:39;;;;;;;;;;;22.90;53.90;;;;;;4985991;28;19914;-69
2022/06/13 06:47:06;;;;;;;;;;;23.00;53.70;;;;;;4986513;28;19921;-69
2022/06/13 06:49:36;;;;;;;;;;;23.00;53.90;;;;;;4986685;28;20295;-69
2022/06/13 06:52:02;;;;;;;;;;;22.90;54.10;;;;;;4984473;28;19918;-67
2022/06/13 06:59:55;;;;;;;;;;;22.80;54.10;;;;;;4985103;28;20007;-70
2022/06/13 07:02:23;;;;;;;;;;;22.80;53.00;;;;;;4986497;28;19997;-69
2022/06/13 07:04:58;;;;;;;;;;;22.80;53.70;;;;;;4985944;28;19941;-69
2022/06/13 07:07:23;;;;;;;;;;;22.90;53.30;;;;;;4986651;28;20008;-69
2022/06/13 07:09:49;;;;;;;;;;;22.60;53.60;;;;;;4985010;28;19922;-70
2022/06/13 07:12:14;;;;;;;;;;;22.60;53.50;;;;;;4985608;28;19914;-69
2022/06/13 07:14:40;;;;;;;;;;;22.70;54.10;;;;;;4985749;28;20376;-69
2022/06/13 07:17:06;;;;;;;;;;;22.80;52.80;;;;;;4985940;28;19920;-69
2022/06/13 07:19:32;;;;;;;;;;;22.40;54.20;;;;;;4985966;28;19918;-68
2022/06/13 07:21:57;;;;;;;;;;;22.60;53.60;;;;;;4985805;28;20440;-71
2022/06/13 07:24:22;;;;;;;;;;;22.50;54.40;;;;;;4985557;28;19977;-70
2022/06/13 07:26:48;;;;;;;;;;;22.60;54.10;;;;;;4985725;28;19918;-68
2022/06/13 07:29:16;;;;;;;;;;;22.70;53.90;;;;;;4985218;28;20424;-68
2022/06/13 07:32:00;;;;;;;;;;;22.50;53.80;;;;;;4985900;28;19941;-69
2022/06/13 07:34:27;;;;;;;;;;;22.40;52.40;;;;;;4980406;28;20411;-68
2022/06/13 07:36:53;;;;;;;;;;;22.30;54.50;;;;;;4985523;28;19922;-69
2022/06/13 07:39:18;;;;;;;;;;;22.40;52.20;;;;;;4986334;28;20296;-66
2022/06/13 07:41:44;;;;;;;;;;;22.40;53.30;;;;;;4985858;28;19921;-66
2022/06/13 07:44:13;;;;;;;;;;;22.30;54.00;;;;;;4968094;28;19918;-66
2022/06/13 07:46:38;;;;;;;;;;;22.20;54.30;;;;;;4984277;28;20442;-68
2022/06/13 07:49:03;;;;;;;;;;;22.20;54.80;;;;;;4985583;28;19914;-68
2022/06/13 07:51:29;;;;;;;;;;;22.10;54.30;;;;;;4984991;28;20395;-70
2022/06/13 07:53:54;;;;;;;;;;;22.40;54.10;;;;;;4985364;28;19921;-70
2022/06/13 07:56:21;;;;;;;;;;;22.50;53.60;;;;;;4984172;28;19917;-69
2022/06/13 07:58:47;;;;;;;;;;;22.60;53.30;;;;;;4984915;28;19914;-66
2022/06/13 08:01:12;;;;;;;;;;;22.70;53.60;;;;;;4984899;28;19948;-69
2022/06/13 08:03:37;;;;;;;;;;;22.70;53.30;;;;;;4984663;28;19921;-70
2022/06/13 08:06:04;;;;;;;;;;;22.70;53.20;;;;;;4985094;28;19945;-68
2022/06/13 08:08:29;;;;;;;;;;;22.80;53.30;;;;;;4984639;28;19922;-69
2022/06/13 08:10:55;;;;;;;;;;;22.80;53.20;;;;;;4984350;28;20352;-69
2022/06/13 08:13:20;;;;;;;;;;;22.80;53.10;;;;;;4984907;28;19922;-68
2022/06/13 08:15:46;;;;;;;;;;;22.90;53.00;;;;;;4967384;28;19997;-69
2022/06/13 08:18:12;;;;;;;;;;;22.90;53.00;;;;;;4984680;28;19924;-68
2022/06/13 08:20:38;;;;;;;;;;;22.90;53.00;;;;;;4984504;28;20005;-68
2022/06/13 08:23:03;;;;;;;;;;;22.90;53.10;;;;;;4982862;28;20347;-69
2022/06/13 08:25:30;;;;;;;;;;;22.90;53.00;;;;;;4984316;28;19918;-69
2022/06/13 08:27:56;;;;;;;;;;;22.80;53.00;;;;;;4984458;28;20016;-69
2022/06/13 08:30:21;;;;;;;;;;;22.40;52.10;;;;;;4984697;28;20001;-68
2022/06/13 08:32:47;;;;;;;;;;;22.40;53.50;;;;;;4983995;28;19914;-67
2022/06/13 08:35:12;;;;;;;;;;;22.60;53.10;;;;;;4984217;28;19977;-68
2022/06/13 08:37:38;;;;;;;;;;;22.60;53.10;;;;;;4984040;28;19926;-69
2022/06/13 08:40:04;;;;;;;;;;;22.60;53.10;;;;;;4984237;28;19945;-68
2022/06/13 08:42:33;;;;;;;;;;;22.70;52.50;;;;;;4983256;28;20383;-67
2022/06/13 08:45:02;;;;;;;;;;;22.60;52.30;;;;;;4984066;28;19914;-68
2022/06/13 08:47:44;;;;;;;;;;;22.60;53.00;;;;;;4984067;28;20368;-68
2022/06/13 08:50:28;;;;;;;;;;;22.70;53.00;;;;;;4984427;28;20029;-69
2022/06/13 08:52:55;;;;;;;;;;;22.80;52.70;;;;;;4984316;28;20288;-67
2022/06/13 08:55:30;;;;;;;;;;;22.80;52.70;;;;;;4984415;28;19918;-68
2022/06/13 08:57:59;;;;;;;;;;;22.80;52.30;;;;;;4982389;28;20792;-69
2022/06/13 09:00:24;;;;;;;;;;;22.90;52.60;;;;;;4984568;28;19997;-68
2022/06/13 09:03:02;;;;;;;;;;;22.60;51.70;;;;;;4982079;28;20005;-67
2022/06/13 09:05:35;;;;;;;;;;;22.60;52.70;;;;;;4982555;28;19918;-69
2022/06/13 09:08:01;;;;;;;;;;;22.70;52.40;;;;;;4982847;28;19926;-69
2022/06/13 09:10:59;;;;;;;;;;;22.70;52.70;;;;;;4983936;28;19914;-67
2022/06/13 09:13:24;;;;;;;;;;;22.60;52.50;;;;;;4950134;28;19918;-69
2022/06/13 09:16:01;;;;;;;;;;;22.70;52.60;;;;;;4984030;28;19977;-69
2022/06/13 09:18:32;;;;;;;;;;;22.70;52.70;;;;;;4978807;28;20572;-67
2022/06/13 09:21:00;;;;;;;;;;;22.70;52.80;;;;;;4982338;28;20246;-69
2022/06/13 09:23:29;;;;;;;;;;;22.80;52.50;;;;;;4982009;28;19964;-68
2022/06/13 09:25:54;;;;;;;;;;;22.80;52.80;;;;;;4984241;28;19924;-67
2022/06/13 09:28:38;;;;;;;;;;;22.80;52.40;;;;;;4983759;28;20406;-67
2022/06/13 09:31:14;;;;;;;;;;;22.80;52.50;;;;;;4983614;28;19921;-67
2022/06/13 09:33:42;;;;;;;;;;;22.40;52.00;;;;;;4983390;28;19921;-68
2022/06/13 09:36:11;;;;;;;;;;;22.40;51.10;;;;;;4981850;28;19921;-68
2022/06/13 09:38:44;;;;;;;;;;;22.30;51.40;;;;;;4984066;28;19917;-67
2022/06/13 09:41:28;;;;;;;;;;;22.40;52.00;;;;;;4982221;28;19929;-67
2022/06/13 09:44:04;;;;;;;;;;;22.50;52.30;;;;;;4973383;28;20597;-66
2022/06/13 09:46:30;;;;;;;;;;;22.50;52.00;;;;;;4981919;28;20552;-67
2022/06/13 09:49:07;;;;;;;;;;;22.60;52.10;;;;;;4982137;28;19914;-67
2022/06/13 09:51:35;;;;;;;;;;;22.30;52.60;;;;;;4979429;28;19914;-68
2022/06/13 09:54:03;;;;;;;;;;;22.50;52.70;;;;;;4985915;28;19949;-67
2022/06/13 09:56:32;;;;;;;;;;;22.50;52.20;;;;;;4986832;28;19971;-68
2022/06/13 09:59:03;;;;;;;;;;;22.50;51.60;;;;;;4987206;28;19914;-67
2022/06/13 10:01:29;;;;;;;;;;;22.50;52.10;;;;;;4988092;28;19937;-69
2022/06/13 10:03:55;;;;;;;;;;;22.60;51.90;;;;;;5003229;28;20001;-69
2022/06/13 10:06:25;;;;;;;;;;;22.60;51.60;;;;;;4987738;28;20005;-70
2022/06/13 10:08:55;;;;;;;;;;;22.50;51.90;;;;;;5002892;28;19956;-69
2022/06/13 10:11:39;;;;;;;;;;;22.40;51.80;;;;;;4994087;28;20687;-68
2022/06/13 10:14:09;;;;;;;;;;;22.30;51.50;;;;;;4988005;28;19940;-69
2022/06/13 10:16:53;;;;;;;;;;;22.40;52.20;;;;;;4986041;28;20001;-69
2022/06/13 10:19:22;;;;;;;;;;;22.60;52.20;;;;;;4987820;28;19997;-68
2022/06/13 10:21:48;;;;;;;;;;;22.40;51.90;;;;;;4985843;28;19925;-69
2022/06/13 10:24:32;;;;;;;;;;;22.60;52.20;;;;;;4986151;28;20040;-70
2022/06/13 10:27:04;;;;;;;;;;;22.50;52.10;;;;;;4987682;28;19984;-68
2022/06/13 10:29:43;;;;;;;;;;;22.40;51.90;;;;;;4986638;28;20000;-70
2022/06/13 10:32:25;;;;;;;;;;;22.50;52.20;;;;;;4985864;28;19914;-70
2022/06/13 10:34:58;;;;;;;;;;;22.50;51.40;;;;;;4985891;28;19918;-69
2022/06/13 10:37:30;;;;;;;;;;;22.40;51.70;;;;;;4985221;28;19921;-68
2022/06/13 10:39:56;;;;;;;;;;;22.20;50.70;;;;;;4981794;28;19914;-70
2022/06/13 10:42:22;;;;;;;;;;;22.30;51.60;;;;;;4985332;28;19917;-66
2022/06/13 10:44:48;;;;;;;;;;;22.20;51.60;;;;;;4987468;28;19922;-71
2022/06/13 10:47:14;;;;;;;;;;;22.10;52.60;;;;;;4987333;28;19914;-69
2022/06/13 10:49:41;;;;;;;;;;;22.00;52.30;;;;;;4985990;28;19918;-67
2022/06/13 10:52:09;;;;;;;;;;;21.90;53.30;;;;;;4986119;28;19914;-69
2022/06/13 10:54:38;;;;;;;;;;;21.80;54.00;;;;;;4987065;28;20438;-69
2022/06/13 10:57:05;;;;;;;;;;;22.00;53.40;;;;;;4984656;28;19921;-70
2022/06/13 10:59:31;;;;;;;;;;;21.90;54.00;;;;;;4985678;28;20309;-70
2022/06/13 11:02:01;;;;;;;;;;;21.90;54.00;;;;;;4987250;28;19914;-70
2022/06/13 11:04:30;;;;;;;;;;;22.10;53.80;;;;;;4985404;28;19922;-68
2022/06/13 11:07:00;;;;;;;;;;;22.30;53.60;;;;;;4987211;28;19914;-69
2022/06/13 11:09:29;;;;;;;;;;;22.40;53.50;;;;;;4986843;28;19914;-69
2022/06/13 11:11:55;;;;;;;;;;;22.40;53.40;;;;;;4986284;28;20392;-69
2022/06/13 11:14:37;;;;;;;;;;;22.50;53.20;;;;;;4984462;28;19922;-69
2022/06/13 11:22:38;;;;;;;;;;;22.50;53.50;;;;;;4985468;28;20324;-70
2022/06/13 11:25:14;;;;;;;;;;;22.20;52.10;;;;;;4985657;28;20487;-68
2022/06/13 11:27:40;;;;;;;;;;;21.90;53.90;;;;;;4984748;28;19913;-68
2022/06/13 11:30:24;;;;;;;;;;;22.10;53.50;;;;;;4987596;28;19921;-68
2022/06/13 11:32:57;;;;;;;;;;;21.90;54.10;;;;;;4986195;28;19922;-70
2022/06/13 11:35:35;;;;;;;;;;;21.90;54.80;;;;;;4989232;28;19918;-68
2022/06/13 11:38:12;;;;;;;;;;;22.10;54.30;;;;;;4989142;28;20546;-69
2022/06/13 11:40:38;;;;;;;;;;;22.30;53.80;;;;;;4986576;28;20391;-68
2022/06/13 11:43:03;;;;;;;;;;;22.40;53.70;;;;;;4984787;28;19934;-68
2022/06/13 11:45:29;;;;;;;;;;;22.50;53.60;;;;;;4986940;28;19918;-68
2022/06/13 11:47:54;;;;;;;;;;;22.50;53.60;;;;;;4986170;28;19913;-67
2022/06/13 11:50:21;;;;;;;;;;;22.50;53.50;;;;;;4986519;28;19976;-67
2022/06/13 11:55:31;;;;;;;;;;;22.60;53.90;;;;;;4984590;28;19928;-68
2022/06/13 11:57:59;;;;;;;;;;;22.50;53.40;;;;;;4986209;28;19914;-68
2022/06/13 12:00:25;;;;;;;;;;;22.10;50.20;;;;;;4985699;28;20633;-68
2022/06/13 12:02:50;;;;;;;;;;;21.70;52.50;;;;;;4985397;28;19965;-67
2022/06/13 12:05:19;;;;;;;;;;;21.70;50.60;;;;;;4985915;28;19921;-69
2022/06/13 12:07:49;;;;;;;;;;;21.70;53.20;;;;;;4984988;28;19914;-68
2022/06/13 12:10:19;;;;;;;;;;;21.70;52.50;;;;;;4986063;28;19943;-68
2022/06/13 12:12:44;;;;;;;;;;;21.80;52.80;;;;;;4985527;28;20007;-69
2022/06/13 12:15:10;;;;;;;;;;;22.00;52.70;;;;;;4985874;28;19973;-70
2022/06/13 12:17:38;;;;;;;;;;;22.00;52.30;;;;;;4987293;28;19976;-69
2022/06/13 12:20:03;;;;;;;;;;;22.10;52.30;;;;;;4984429;28;19920;-68
2022/06/13 12:22:28;;;;;;;;;;;22.10;52.60;;;;;;4985355;28;19914;-70
2022/06/13 12:25:03;;;;;;;;;;;22.10;52.50;;;;;;4986253;28;19921;-70
2022/06/13 12:27:35;;;;;;;;;;;22.20;53.50;;;;;;4974530;28;19961;-70
2022/06/13 12:30:15;;;;;;;;;;;21.70;52.20;;;;;;4984103;28;19913;-70
2022/06/13 12:32:45;;;;;;;;;;;21.80;53.60;;;;;;4983324;28;19913;-69
2022/06/13 12:35:29;;;;;;;;;;;22.00;53.30;;;;;;4983955;28;19925;-70
2022/06/13 12:38:13;;;;;;;;;;;22.10;53.20;;;;;;4985140;28;19921;-70
2022/06/13 12:40:45;;;;;;;;;;;22.10;53.50;;;;;;4984748;28;19929;-70
2022/06/13 12:43:33;;;;;;;;;;;22.20;53.30;;;;;;4984869;28;20448;-69
2022/06/13 12:46:04;;;;;;;;;;;22.30;53.50;;;;;;4985382;28;19921;-70
2022/06/13 12:48:49;;;;;;;;;;;22.40;53.60;;;;;;4973972;28;20601;-70
2022/06/13 12:51:21;;;;;;;;;;;22.40;53.30;;;;;;4985033;28;19934;-70
2022/06/13 12:53:46;;;;;;;;;;;22.30;53.10;;;;;;4984513;28;20404;-68
2022/06/13 12:56:20;;;;;;;;;;;22.30;52.50;;;;;;4984486;28;19933;-70
2022/06/13 12:58:59;;;;;;;;;;;22.10;52.40;;;;;;4983328;28;19922;-70
2022/06/13 13:01:28;;;;;;;;;;;22.20;53.00;;;;;;4983470;28;19940;-69
2022/06/13 13:04:03;;;;;;;;;;;22.30;53.30;;;;;;4983270;28;19928;-69
2022/06/13 13:06:35;;;;;;;;;;;22.40;52.80;;;;;;4984211;28;20572;-70
2022/06/13 13:09:03;;;;;;;;;;;22.40;52.80;;;;;;4974181;28;19944;-69
2022/06/13 13:11:51;;;;;;;;;;;22.20;50.20;;;;;;4985036;28;19914;-70
2022/06/13 13:14:37;;;;;;;;;;;22.00;52.90;;;;;;4982495;28;19914;-69
2022/06/13 13:17:20;;;;;;;;;;;22.10;52.50;;;;;;4984657;28;20005;-70
2022/06/13 13:20:02;;;;;;;;;;;22.20;52.70;;;;;;4978561;28;19960;-70
2022/06/13 13:22:31;;;;;;;;;;;22.30;52.50;;;;;;4981729;28;20455;-69
2022/06/13 13:25:00;;;;;;;;;;;22.40;53.50;;;;;;4984148;28;19921;-70
2022/06/13 13:27:26;;;;;;;;;;;22.40;52.80;;;;;;4980183;28;20434;-71
2022/06/13 13:30:10;;;;;;;;;;;22.30;50.30;;;;;;4987504;28;19914;-69
2022/06/13 13:32:54;;;;;;;;;;;22.20;52.50;;;;;;4988078;28;20500;-69
2022/06/13 13:35:30;;;;;;;;;;;22.20;52.80;;;;;;4988264;28;19928;-69
2022/06/13 13:37:59;;;;;;;;;;;22.30;52.20;;;;;;4986926;28;19925;-70
2022/06/13 13:40:41;;;;;;;;;;;22.20;51.30;;;;;;4988412;28;19986;-69
2022/06/13 13:43:15;;;;;;;;;;;22.20;51.10;;;;;;4986130;28;19914;-70
2022/06/13 13:45:49;;;;;;;;;;;22.20;49.60;;;;;;4986928;28;20752;-70
2022/06/13 13:48:14;;;;;;;;;;;22.20;49.40;;;;;;4987029;28;19933;-71
2022/06/13 13:50:44;;;;;;;;;;;22.20;50.40;;;;;;4988213;28;19913;-71
2022/06/13 13:53:09;;;;;;;;;;;22.30;49.20;;;;;;4988421;28;19917;-71
2022/06/13 13:55:40;;;;;;;;;;;22.10;45.20;;;;;;4988580;28;19917;-68
2022/06/13 13:58:09;;;;;;;;;;;21.90;48.60;;;;;;4986819;28;19996;-71
2022/06/13 14:00:34;;;;;;;;;;;21.90;48.00;;;;;;4988304;28;19913;-68
2022/06/13 14:03:03;;;;;;;;;;;21.80;47.50;;;;;;4988484;28;20323;-71
2022/06/13 14:05:41;;;;;;;;;;;21.70;46.40;;;;;;4987953;28;21526;-72
2022/06/13 14:08:06;;;;;;;;;;;21.70;49.50;;;;;;4986265;28;19918;-71
2022/06/13 14:10:33;;;;;;;;;;;21.90;48.90;;;;;;4987753;28;19914;-69
2022/06/13 14:13:06;;;;;;;;;;;22.00;49.60;;;;;;4986522;28;19920;-70
2022/06/13 14:15:35;;;;;;;;;;;21.90;48.60;;;;;;4986708;28;20049;-71
2022/06/13 14:18:03;;;;;;;;;;;22.10;49.70;;;;;;4986724;28;19917;-71
2022/06/13 14:20:29;;;;;;;;;;;22.10;47.70;;;;;;4988197;28;19914;-71
2022/06/13 14:22:56;;;;;;;;;;;21.90;48.40;;;;;;4986229;28;20394;-69
2022/06/13 14:25:22;;;;;;;;;;;21.80;49.70;;;;;;4987676;28;20358;-71
2022/06/13 14:27:49;;;;;;;;;;;22.00;49.40;;;;;;4986945;28;19976;-72
2022/06/13 14:33:03;;;;;;;;;;;22.10;48.50;;;;;;4987424;28;20439;-69
2022/06/13 14:35:44;;;;;;;;;;;22.20;49.70;;;;;;4986594;28;19922;-70
2022/06/13 14:38:11;;;;;;;;;;;22.30;50.10;;;;;;4987331;28;19922;-70
2022/06/13 14:40:38;;;;;;;;;;;22.30;50.20;;;;;;4984720;28;19914;-69
2022/06/13 14:43:08;;;;;;;;;;;22.30;50.20;;;;;;4985723;28;20381;-71
2022/06/13 14:45:41;;;;;;;;;;;22.30;50.30;;;;;;4985933;28;19914;-70
2022/06/13 14:48:08;;;;;;;;;;;22.30;49.60;;;;;;4986439;28;19913;-70
2022/06/13 14:50:41;;;;;;;;;;;22.30;49.80;;;;;;4987363;28;19986;-70